Time;durP1;ratioP1;P1;durP2;ratioP2;P2;SDS_P1;SDS_P2;PMS_P1;PMS_P2;Temp;Humidity;BMP_temperature;BMP_pressure;BME280_temperature;BME280_humidity;BME280_pressure;Samples;Min_cycle;Max_cycle;Signal;HPM_P1;HPM_P2
2021/04/16 00:01:42;;;;;;;4.07;1.83;;;;;;;2.79;93.09;101824.47;4965650;28;20504;-79
2021/04/16 00:04:09;;;;;;;4.27;1.80;;;;;;;2.67;92.02;101817.16;4967412;28;20042;-79
2021/04/16 00:06:37;;;;;;;2.83;1.77;;;;;;;2.77;90.93;101816.56;4973670;28;20042;-80
2021/04/16 00:09:04;;;;;;;3.47;1.50;;;;;;;2.82;87.49;101814.13;4983319;28;20807;-79
2021/04/16 00:11:30;;;;;;;3.67;1.63;;;;;;;2.74;91.00;101815.63;4992240;28;20411;-79
2021/04/16 00:13:57;;;;;;;3.10;1.33;;;;;;;2.77;88.87;101813.97;4973370;28;20038;-78
2021/04/16 00:16:26;;;;;;;3.17;1.43;;;;;;;2.83;85.23;101803.72;4983411;28;20065;-78
2021/04/16 00:18:53;;;;;;;3.07;1.80;;;;;;;2.79;91.15;101798.38;4965516;28;20050;-78
2021/04/16 00:21:19;;;;;;;3.73;1.67;;;;;;;2.82;90.76;101811.50;4954539;28;20509;-78
2021/04/16 00:23:45;;;;;;;3.00;1.27;;;;;;;2.83;87.43;101806.34;4987129;28;20069;-79
2021/04/16 00:26:12;;;;;;;2.40;1.47;;;;;;;2.86;88.59;101808.16;4955793;28;20093;-78
2021/04/16 00:28:40;;;;;;;3.47;1.50;;;;;;;2.91;87.88;101805.69;4972285;28;20034;-80
2021/04/16 00:31:08;;;;;;;2.83;1.40;;;;;;;2.83;90.75;101805.44;4976198;28;20108;-79
2021/04/16 00:33:34;;;;;;;2.07;1.40;;;;;;;2.77;84.47;101800.91;4988264;28;20046;-80
2021/04/16 00:36:01;;;;;;;3.03;1.50;;;;;;;2.82;89.39;101795.84;4973254;28;20093;-79
2021/04/16 00:38:27;;;;;;;3.00;1.50;;;;;;;2.76;90.08;101790.44;4970834;28;20042;-78
2021/04/16 00:40:56;;;;;;;6.23;1.83;;;;;;;2.80;89.74;101800.16;4963720;28;20778;-78
2021/04/16 00:43:24;;;;;;;2.80;1.77;;;;;;;2.79;85.78;101799.28;4978224;28;20112;-80
2021/04/16 00:46:48;;;;;;;3.00;1.30;;;;;;;2.73;90.62;101799.06;4969570;28;20522;-80
2021/04/16 00:49:30;;;;;;;3.77;1.20;;;;;;;2.85;88.58;101793.31;4986133;28;20050;-82
2021/04/16 00:52:04;;;;;;;7.60;2.20;;;;;;;2.79;85.78;101793.16;4984063;28;20636;-82
2021/04/16 00:54:38;;;;;;;4.10;1.70;;;;;;;2.85;88.60;101800.28;4956483;28;20050;-82
2021/04/16 00:57:06;;;;;;;5.37;1.30;;;;;;;2.77;90.48;101795.69;4972667;28;20042;-81
2021/04/16 00:59:34;;;;;;;3.90;1.40;;;;;;;2.79;88.87;101793.16;4971405;28;20038;-79
2021/04/16 01:02:01;;;;;;;4.27;1.40;;;;;;;2.79;90.43;101785.34;4964531;28;20043;-79
2021/04/16 01:04:30;;;;;;;8.07;1.97;;;;;;;2.79;89.32;101783.59;4987350;28;20104;-79
2021/04/16 01:06:56;;;;;;;2.53;1.33;;;;;;;2.81;88.20;101784.53;4965857;28;20042;-80
2021/04/16 01:09:22;;;;;;;2.80;1.30;;;;;;;2.77;88.38;101782.66;4970185;28;20050;-82
2021/04/16 01:11:48;;;;;;;3.43;1.40;;;;;;;2.72;86.95;101784.25;4972927;28;20407;-81
2021/04/16 01:14:16;;;;;;;4.43;2.00;;;;;;;2.81;87.40;101789.75;4954600;28;20039;-82
2021/04/16 01:16:42;;;;;;;2.80;1.30;;;;;;;2.83;85.65;101787.19;4956586;28;20042;-83
2021/04/16 01:19:21;;;;;;;2.93;1.80;;;;;;;2.90;87.19;101783.91;4956525;28;20050;-80
2021/04/16 01:22:01;;;;;;;3.50;1.40;;;;;;;2.85;87.54;101772.44;4972676;28;20038;-81
2021/04/16 01:24:32;;;;;;;3.30;1.50;;;;;;;2.84;84.99;101786.34;4986849;28;20057;-81
2021/04/16 01:26:58;;;;;;;4.17;1.70;;;;;;;2.85;86.55;101780.28;4982551;28;20042;-80
2021/04/16 01:29:26;;;;;;;2.97;1.57;;;;;;;2.96;83.72;101772.78;4991311;28;20046;-80
2021/04/16 01:31:53;;;;;;;4.43;1.57;;;;;;;2.92;85.94;101786.56;4959116;28;20053;-82
2021/04/16 01:34:27;;;;;;;3.80;1.43;;;;;;;2.87;86.07;101768.19;4974875;28;20046;-82
2021/04/16 01:36:54;;;;;;;;;;;;;;;2.91;86.16;101782.19;4975025;28;20133;-82
2021/04/16 01:39:22;;;;;;;2.60;1.67;;;;;;;2.83;86.26;101777.63;4981033;28;19922;-83
2021/04/16 01:41:49;;;;;;;3.00;1.27;;;;;;;2.88;86.26;101769.06;4955680;28;20054;-82
2021/04/16 01:44:18;;;;;;;5.03;2.00;;;;;;;2.90;84.15;101767.38;4966764;28;20038;-81
2021/04/16 01:47:09;;;;;;;3.70;1.60;;;;;;;2.86;83.12;101757.66;4956147;28;20415;-83
2021/04/16 01:49:39;;;;;;;3.27;1.30;;;;;;;2.91;85.33;101764.78;4974831;28;20042;-81
2021/04/16 01:52:10;;;;;;;4.77;1.60;;;;;;;2.94;86.72;101754.44;4976443;28;20042;-82
2021/04/16 01:54:45;;;;;;;3.00;1.50;;;;;;;2.97;85.75;101754.53;4969860;28;20043;-82
2021/04/16 01:57:19;;;;;;;6.07;1.93;;;;;;;2.98;85.49;101758.03;4971419;28;20042;-81
2021/04/16 01:59:46;;;;;;;;;;;;;;;2.87;85.65;101757.72;4971957;28;20042;-81
2021/04/16 02:02:20;;;;;;;5.37;2.43;;;;;;;2.96;87.12;101763.22;4974335;28;19968;-81
2021/04/16 02:04:46;;;;;;;2.72;1.25;;;;;;;2.91;87.00;101759.56;4971841;28;20053;-81
2021/04/16 02:07:13;;;;;;;4.17;1.37;;;;;;;3.03;85.41;101769.50;4959115;28;20042;-82
2021/04/16 02:09:39;;;;;;;4.67;1.27;;;;;;;2.92;84.51;101770.91;4974858;28;20045;-81
2021/04/16 02:12:09;;;;;;;4.20;2.30;;;;;;;2.93;83.64;101772.66;4958071;28;20085;-81
2021/04/16 02:14:35;;;;;;;3.23;1.53;;;;;;;3.03;84.33;101765.16;4974327;28;20483;-81
2021/04/16 02:17:43;;;;;;;;;;;;;;;;;;;;;
2021/04/16 02:20:31;;;;;;;2.27;1.20;;;;;;;2.97;87.15;101774.53;4924425;29;20450;-80
2021/04/16 02:22:57;;;;;;;8.17;1.50;;;;;;;2.94;86.68;101772.69;4942936;28;20618;-82
2021/04/16 02:25:29;;;;;;;4.53;1.40;;;;;;;3.03;85.90;101773.00;4988832;28;20100;-81
2021/04/16 02:27:59;;;;;;;6.23;1.90;;;;;;;3.00;84.00;101759.81;4989823;28;20057;-82
2021/04/16 02:30:33;;;;;;;5.67;2.03;;;;;;;2.85;85.09;101767.22;4974375;28;20061;-81
2021/04/16 02:32:59;;;;;;;5.00;1.50;;;;;;;2.78;83.67;101763.56;4990034;28;20058;-81
2021/04/16 02:35:26;;;;;;;2.17;1.13;;;;;;;2.87;86.81;101772.50;4960440;28;20057;-81
2021/04/16 02:37:53;;;;;;;3.00;1.27;;;;;;;2.94;87.49;101762.25;4975097;28;20039;-82
2021/04/16 02:44:27;;;;;;;3.17;1.93;;;;;;;2.83;85.32;101756.75;4907871;29;20044;-83
2021/04/16 02:46:54;;;;;;;2.73;1.50;;;;;;;2.88;86.61;101763.84;4880528;29;20080;-81
2021/04/16 02:49:23;;;;;;;2.07;1.10;;;;;;;2.85;87.57;101754.16;4964775;28;20046;-82
2021/04/16 02:51:51;;;;;;;4.50;1.60;;;;;;;2.95;86.83;101755.34;4973934;28;20101;-82
2021/04/16 02:54:20;;;;;;;3.37;1.50;;;;;;;2.86;85.31;101761.19;4967681;28;20096;-80
2021/04/16 02:56:47;;;;;;;4.73;1.53;;;;;;;2.87;86.65;101756.84;4958629;28;20513;-81
2021/04/16 02:59:14;;;;;;;3.70;1.43;;;;;;;2.82;87.04;101752.38;4989600;28;20143;-80
2021/04/16 03:01:40;;;;;;;4.40;1.40;;;;;;;2.82;88.33;101752.38;4974333;28;20050;-83
2021/04/16 03:04:29;;;;;;;4.23;1.50;;;;;;;2.98;87.17;101755.41;4973712;28;20435;-82
2021/04/16 03:07:17;;;;;;;4.53;1.90;;;;;;;2.87;86.71;101749.03;4944786;29;20070;-79
2021/04/16 03:09:43;;;;;;;4.97;1.40;;;;;;;2.84;86.23;101752.41;4921940;29;20106;-81
2021/04/16 03:12:13;;;;;;;3.90;1.43;;;;;;;2.81;86.98;101757.56;4918261;29;20079;-82
2021/04/16 03:14:42;;;;;;;3.20;1.20;;;;;;;2.90;88.14;101749.97;4921479;28;20555;-81
2021/04/16 03:17:08;;;;;;;4.73;1.40;;;;;;;2.82;86.63;101752.38;4913104;28;20113;-81
2021/04/16 03:19:34;;;;;;;5.00;1.83;;;;;;;2.86;86.94;101750.75;4921173;29;20051;-81
2021/04/16 03:22:00;;;;;;;3.63;1.50;;;;;;;2.92;87.33;101753.50;4934124;29;20505;-81
2021/04/16 03:24:27;;;;;;;4.47;2.03;;;;;;;2.90;87.88;101754.31;4917719;29;20076;-80
2021/04/16 03:27:54;;;;;;;7.13;1.70;;;;;;;2.95;87.68;101757.94;4947071;28;20051;-80
2021/04/16 03:31:04;;;;;;;3.87;1.40;;;;;;;2.92;88.86;101763.06;4852358;29;20586;-80
2021/04/16 03:33:31;;;;;;;4.10;2.40;;;;;;;2.93;87.92;101760.50;4924001;29;20051;-79
2021/04/16 03:35:58;;;;;;;3.77;1.53;;;;;;;2.86;87.90;101768.09;4933693;29;20097;-81
2021/04/16 03:38:25;;;;;;;4.70;2.03;;;;;;;2.84;88.33;101768.06;4959920;28;20051;-81
2021/04/16 03:40:51;;;;;;;2.20;1.30;;;;;;;2.96;88.13;101772.78;4989661;28;20403;-81
2021/04/16 03:43:17;;;;;;;2.83;1.40;;;;;;;3.00;86.74;101772.00;4975022;28;20073;-80
2021/04/16 03:45:44;;;;;;;4.27;2.40;;;;;;;2.99;87.43;101772.84;4989663;28;20419;-79
2021/04/16 03:48:10;;;;;;;4.97;1.67;;;;;;;2.96;88.89;101780.59;4979272;28;20056;-80
2021/04/16 03:50:37;;;;;;;2.17;1.47;;;;;;;2.96;86.86;101764.94;4988673;28;20066;-80
2021/04/16 03:53:05;;;;;;;2.57;1.27;;;;;;;3.02;87.83;101776.41;4989084;28;20400;-81
2021/04/16 03:55:33;;;;;;;4.77;1.33;;;;;;;2.94;87.90;101775.31;4972273;28;20049;-80
2021/04/16 03:58:05;;;;;;;5.13;1.60;;;;;;;3.04;87.49;101776.47;4973264;28;20533;-80
2021/04/16 04:00:36;;;;;;;3.37;1.73;;;;;;;2.99;87.85;101778.94;4972682;28;20427;-80
2021/04/16 04:03:02;;;;;;;3.97;1.67;;;;;;;2.94;87.34;101775.31;4974280;28;20097;-79
2021/04/16 04:05:28;;;;;;;2.50;1.30;;;;;;;2.94;88.78;101780.53;4989675;28;20046;-81
2021/04/16 04:07:55;;;;;;;5.70;1.37;;;;;;;2.91;87.72;101779.56;4988481;28;20423;-81
2021/04/16 04:10:22;;;;;;;2.97;1.40;;;;;;;3.06;87.18;101780.00;4973183;28;20126;-81
2021/04/16 04:12:49;;;;;;;2.87;1.20;;;;;;;2.87;88.54;101781.22;4966122;28;20452;-81
2021/04/16 04:15:17;;;;;;;2.63;1.30;;;;;;;2.93;88.04;101783.09;4972061;28;20470;-81
2021/04/16 04:17:43;;;;;;;4.87;1.93;;;;;;;2.85;88.92;101779.38;4972729;28;20057;-80
2021/04/16 04:20:15;;;;;;;2.97;1.47;;;;;;;3.01;89.46;101789.44;4972520;28;20049;-81
2021/04/16 04:22:41;;;;;;;6.63;1.97;;;;;;;2.86;88.94;101787.28;4971004;28;20562;-80
2021/04/16 04:25:08;;;;;;;7.30;1.60;;;;;;;2.91;89.65;101792.63;4973517;28;20109;-81
2021/04/16 04:27:34;;;;;;;2.37;1.30;;;;;;;3.04;89.03;101789.53;4989510;28;20034;-81
2021/04/16 04:30:00;;;;;;;2.90;1.60;;;;;;;3.15;89.05;101790.72;4957289;28;20047;-80
2021/04/16 04:32:26;;;;;;;3.87;1.53;;;;;;;3.00;87.29;101788.53;4969684;28;20043;-81
2021/04/16 04:34:53;;;;;;;5.97;2.10;;;;;;;3.01;88.07;101792.03;4954235;28;20053;-81
2021/04/16 04:37:19;;;;;;;2.70;1.13;;;;;;;3.05;87.78;101799.13;4972171;28;20046;-80
2021/04/16 04:39:46;;;;;;;4.23;2.00;;;;;;;3.16;86.59;101792.47;4972849;28;20050;-81
2021/04/16 04:42:12;;;;;;;2.23;1.30;;;;;;;3.09;88.36;101794.03;4965526;28;20090;-81
2021/04/16 04:44:38;;;;;;;1.90;1.30;;;;;;;3.18;88.63;101787.28;4966220;28;20688;-81
2021/04/16 04:47:05;;;;;;;3.80;1.53;;;;;;;3.10;87.58;101792.28;4988927;28;20105;-81
2021/04/16 04:49:33;;;;;;;3.23;1.20;;;;;;;3.12;88.09;101790.63;4972412;28;20046;-81
2021/04/16 04:52:15;;;;;;;2.40;1.37;;;;;;;3.13;87.47;101796.75;4957191;28;20113;-81
2021/04/16 04:54:47;;;;;;;5.47;1.63;;;;;;;3.28;86.33;101804.97;4998519;28;20045;-81
2021/04/16 04:57:14;;;;;;;4.53;1.43;;;;;;;3.26;85.57;101791.00;4987982;28;20097;-80
2021/04/16 04:59:43;;;;;;;3.20;2.00;;;;;;;3.16;85.36;101800.31;4971527;28;20129;-80
2021/04/16 05:02:09;;;;;;;5.63;1.60;;;;;;;3.25;87.13;101790.13;4986824;28;20162;-80
2021/04/16 05:04:36;;;;;;;3.73;1.30;;;;;;;3.17;86.56;101789.00;4955330;28;20042;-81
2021/04/16 05:07:03;;;;;;;6.70;4.30;;;;;;;3.36;86.64;101788.69;4988581;28;20516;-81
2021/04/16 05:09:29;;;;;;;2.37;1.70;;;;;;;3.33;85.45;101790.31;4976656;28;20094;-80
2021/04/16 05:11:55;;;;;;;6.47;2.47;;;;;;;3.38;84.84;101794.84;4973311;28;20046;-80
2021/04/16 05:14:21;;;;;;;4.17;1.50;;;;;;;3.39;85.86;101790.50;4991706;28;20042;-81
2021/04/16 05:16:48;;;;;;;5.03;3.97;;;;;;;3.47;84.73;101793.31;4975700;28;20565;-81
2021/04/16 05:19:14;;;;;;;4.50;1.67;;;;;;;3.53;84.30;101793.47;4975486;28;20043;-80
2021/04/16 05:21:40;;;;;;;4.67;2.00;;;;;;;3.50;85.36;101786.44;4991225;28;20496;-80
2021/04/16 05:24:07;;;;;;;4.63;1.90;;;;;;;3.45;84.94;101792.38;4992907;28;20097;-81
2021/04/16 05:26:35;;;;;;;4.77;1.50;;;;;;;3.47;85.33;101791.59;4973915;28;20049;-81
2021/04/16 05:29:01;;;;;;;3.47;1.50;;;;;;;3.64;85.11;101789.41;4945853;28;20042;-82
2021/04/16 05:31:28;;;;;;;3.20;1.47;;;;;;;3.66;82.77;101796.44;4971811;28;20057;-81
2021/04/16 05:33:54;;;;;;;2.27;1.50;;;;;;;3.56;84.16;101786.59;4960981;28;20053;-79
2021/04/16 05:36:20;;;;;;;4.17;2.00;;;;;;;3.67;84.22;101794.72;4988362;28;21756;-80
2021/04/16 05:38:47;;;;;;;3.33;1.93;;;;;;;3.68;83.32;101791.25;5007299;28;20046;-80
2021/04/16 05:41:13;;;;;;;3.90;1.30;;;;;;;3.77;83.45;101794.09;4990058;28;20050;-81
2021/04/16 05:43:39;;;;;;;2.80;1.70;;;;;;;3.85;82.52;101802.13;4989392;28;20046;-80
2021/04/16 05:46:06;;;;;;;8.03;2.33;;;;;;;3.92;82.48;101797.09;5006341;28;20049;-80
2021/04/16 05:48:32;;;;;;;3.10;1.73;;;;;;;4.14;82.16;101802.88;4972578;28;20041;-80
2021/04/16 05:50:59;;;;;;;2.50;1.03;;;;;;;3.96;83.31;101805.91;4988652;28;20048;-80
2021/04/16 05:53:25;;;;;;;4.20;1.60;;;;;;;4.04;82.95;101801.75;4968647;28;20074;-79
2021/04/16 05:55:51;;;;;;;4.83;1.50;;;;;;;4.05;83.45;101806.13;4992378;28;20038;-79
2021/04/16 05:58:17;;;;;;;5.60;1.40;;;;;;;4.26;81.23;101805.75;4990823;28;20042;-79
2021/04/16 06:00:44;;;;;;;3.03;1.40;;;;;;;4.10;80.71;101811.47;4981458;28;20074;-79
2021/04/16 06:03:10;;;;;;;3.77;1.40;;;;;;;4.20;81.22;101805.59;4976734;28;20094;-80
2021/04/16 06:05:37;;;;;;;4.90;1.90;;;;;;;4.40;81.97;101799.13;4972066;28;20435;-80
2021/04/16 06:08:05;;;;;;;4.00;1.47;;;;;;;4.40;82.17;101799.13;4989807;28;20038;-80
2021/04/16 06:10:31;;;;;;;3.23;1.30;;;;;;;4.33;80.37;101802.44;4984533;28;20043;-79
2021/04/16 06:12:57;;;;;;;4.80;1.40;;;;;;;4.38;82.50;101803.44;4984718;28;20039;-80
2021/04/16 06:15:26;;;;;;;4.70;2.90;;;;;;;4.54;81.60;101799.44;4973909;28;20108;-79
2021/04/16 06:17:53;;;;;;;8.47;4.93;;;;;;;4.61;81.79;101801.31;4990786;28;20074;-79
2021/04/16 06:20:21;;;;;;;5.50;3.23;;;;;;;4.61;81.63;101803.94;4972975;28;20078;-79
2021/04/16 06:22:48;;;;;;;5.07;2.47;;;;;;;4.70;80.46;101803.25;4993506;28;20038;-79
2021/04/16 06:25:17;;;;;;;3.67;1.63;;;;;;;4.77;79.93;101807.78;4975115;28;20042;-79
2021/04/16 06:27:44;;;;;;;3.53;1.37;;;;;;;4.78;81.52;101814.78;4968470;28;20050;-79
2021/04/16 06:33:34;;;;;;;4.27;1.20;;;;;;;4.94;78.48;101802.91;4987941;28;20093;-79
2021/04/16 06:36:05;;;;;;;2.47;1.27;;;;;;;4.95;79.97;101802.03;4977337;28;20034;-78
2021/04/16 06:38:35;;;;;;;7.27;2.07;;;;;;;5.39;79.93;101804.69;4986122;28;20042;-79
2021/04/16 06:41:02;;;;;;;5.93;1.63;;;;;;;5.38;78.65;101801.16;4967483;28;20074;-80
2021/04/16 06:43:37;;;;;;;4.23;1.70;;;;;;;5.54;77.14;101792.72;4969917;28;20042;-80
2021/04/16 06:46:06;;;;;;;2.97;1.63;;;;;;;5.19;77.42;101807.78;4973875;28;20168;-78
2021/04/16 06:48:32;;;;;;;4.13;1.60;;;;;;;5.12;79.69;101800.66;4974116;28;20038;-79
2021/04/16 06:50:59;;;;;;;2.57;2.20;;;;;;;5.13;79.19;101796.28;4987940;28;20057;-80
2021/04/16 06:53:39;;;;;;;3.90;2.03;;;;;;;5.15;80.37;101800.72;4961242;28;20043;-81
2021/04/16 06:56:11;;;;;;;7.50;2.07;;;;;;;5.19;79.17;101807.78;4958508;28;20070;-80
2021/04/16 06:58:53;;;;;;;6.63;2.33;;;;;;;5.35;77.86;101790.63;4974348;28;20129;-79
2021/04/16 07:01:29;;;;;;;2.70;1.23;;;;;;;5.63;80.79;101798.16;5007563;28;20050;-80
2021/04/16 07:04:22;;;;;;;7.20;1.50;;;;;;;5.68;77.71;101805.22;4966222;28;20142;-80
2021/04/16 07:06:54;;;;;;;4.40;1.90;;;;;;;5.76;75.82;101804.47;4987721;28;20046;-80
2021/04/16 07:09:36;;;;;;;5.83;1.77;;;;;;;5.60;76.43;101792.84;4997585;23;20047;-81
2021/04/16 07:12:15;;;;;;;5.47;1.70;;;;;;;5.47;77.24;101790.00;4952969;28;20049;-83
2021/04/16 07:14:44;;;;;;;3.37;1.60;;;;;;;5.54;78.42;101797.97;4942191;28;20071;-82
2021/04/16 07:17:14;;;;;;;4.07;1.70;;;;;;;5.43;76.28;101804.75;4932664;28;20535;-83
2021/04/16 07:19:41;;;;;;;6.77;2.13;;;;;;;5.64;76.74;101796.41;4937725;28;20049;-82
2021/04/16 07:22:20;;;;;;;3.20;1.63;;;;;;;5.53;76.96;101796.19;4953498;28;20113;-83
2021/04/16 07:24:48;;;;;;;5.27;1.90;;;;;;;5.66;78.53;101799.94;4935907;28;20066;-83
2021/04/16 07:27:33;;;;;;;4.97;2.17;;;;;;;5.79;77.25;101801.03;4937731;28;20054;-83
2021/04/16 07:30:00;;;;;;;5.07;1.90;;;;;;;5.75;77.16;101800.09;4953937;28;20039;-83
2021/04/16 07:32:27;;;;;;;5.00;1.70;;;;;;;6.13;75.16;101802.50;4938219;28;20047;-80
2021/04/16 07:34:54;;;;;;;3.87;1.37;;;;;;;6.04;77.46;101789.25;4956117;28;20074;-83
2021/04/16 07:37:26;;;;;;;4.63;1.90;;;;;;;6.23;74.38;101791.31;4953900;28;20062;-83
2021/04/16 07:40:06;;;;;;;4.83;2.17;;;;;;;6.25;76.22;101789.59;4953099;28;20054;-82
2021/04/16 07:42:45;;;;;;;3.40;1.83;;;;;;;5.98;75.39;101795.28;4936451;29;20058;-83
2021/04/16 07:45:26;;;;;;;3.57;1.60;;;;;;;5.99;74.61;101810.16;4952034;28;20094;-83
2021/04/16 07:48:14;;;;;;;9.40;2.03;;;;;;;6.11;75.61;101802.47;4954602;28;20046;-84
2021/04/16 07:51:05;;;;;;;4.47;1.70;;;;;;;5.94;74.56;101798.69;4952472;28;20526;-83
2021/04/16 07:53:35;;;;;;;4.53;1.67;;;;;;;6.14;76.06;101813.03;4954136;28;20105;-83
2021/04/16 07:56:18;;;;;;;2.93;1.40;;;;;;;6.20;74.98;101802.63;4953940;28;20089;-83
2021/04/16 07:58:46;;;;;;;3.17;1.53;;;;;;;6.16;73.49;101795.56;4967463;28;20047;-83
2021/04/16 08:01:40;;;;;;;5.73;1.83;;;;;;;6.33;74.49;101801.09;4937456;28;20062;-82
2021/04/16 08:04:34;;;;;;;5.03;2.13;;;;;;;6.29;73.27;101799.25;4953749;28;20058;-83
2021/04/16 08:07:16;;;;;;;5.43;2.00;;;;;;;6.29;72.52;101804.50;4965414;28;20125;-82
2021/04/16 08:09:42;;;;;;;4.43;1.90;;;;;;;6.44;74.29;101798.63;4967097;28;20039;-83
2021/04/16 08:12:10;;;;;;;4.40;2.03;;;;;;;6.33;73.48;101805.47;4970599;28;20069;-83
2021/04/16 08:14:39;;;;;;;3.47;1.40;;;;;;;6.55;73.47;101806.63;4934943;28;20047;-82
2021/04/16 08:17:16;;;;;;;4.03;1.93;;;;;;;6.60;71.80;101810.22;4954449;28;20095;-82
2021/04/16 08:19:43;;;;;;;4.93;2.10;;;;;;;6.55;71.11;101814.50;4953588;28;20043;-82
2021/04/16 08:22:09;;;;;;;7.77;1.80;;;;;;;6.75;72.13;101810.44;4969497;28;20097;-80
2021/04/16 08:24:48;;;;;;;3.80;1.53;;;;;;;6.77;72.68;101809.59;4956400;28;20054;-83
2021/04/16 08:27:36;;;;;;;4.03;1.80;;;;;;;6.98;72.73;101806.38;4960074;28;20047;-82
2021/04/16 08:30:09;;;;;;;4.77;2.07;;;;;;;7.00;69.30;101803.75;4949297;28;20043;-82
2021/04/16 08:32:47;;;;;;;4.97;1.47;;;;;;;7.27;70.11;101806.72;4983861;28;20053;-83
2021/04/16 08:35:44;;;;;;;2.30;1.40;;;;;;;7.30;67.02;101808.47;4949780;28;20046;-84
2021/04/16 08:38:18;;;;;;;6.30;1.90;;;;;;;7.14;69.42;101819.69;4933566;28;20122;-81
2021/04/16 08:40:47;;;;;;;2.87;1.97;;;;;;;7.35;67.55;101804.16;4940024;28;20043;-81
2021/04/16 08:43:29;;;;;;;4.80;2.27;;;;;;;7.11;65.82;101803.88;4950966;28;20089;-81
2021/04/16 08:45:56;;;;;;;4.77;1.50;;;;;;;7.07;66.36;101802.97;4955905;28;20046;-83
2021/04/16 08:48:29;;;;;;;4.90;1.80;;;;;;;7.20;67.80;101794.34;4953071;28;20098;-81
2021/04/16 08:51:13;;;;;;;6.20;2.03;;;;;;;7.27;66.05;101795.31;4938951;28;20120;-81
2021/04/16 08:53:41;;;;;;;3.53;1.48;;;;;;;7.62;67.27;101796.56;4952231;28;20031;-81
2021/04/16 08:56:15;;;;;;;3.13;1.53;;;;;;;7.58;66.23;101797.41;4972048;28;20047;-81
2021/04/16 08:58:41;;;;;;;4.32;1.70;;;;;;;7.94;67.13;101792.47;4942601;28;20047;-82
2021/04/16 09:01:29;;;;;;;3.27;1.50;;;;;;;7.98;60.44;101787.22;4946334;28;20455;-79
2021/04/16 09:04:12;;;;;;;2.13;1.50;;;;;;;8.00;61.40;101790.78;4954540;28;20135;-80
2021/04/16 09:06:39;;;;;;;4.47;1.40;;;;;;;7.83;62.42;101797.66;4954617;28;20047;-81
2021/04/16 09:09:10;;;;;;;2.83;1.70;;;;;;;7.19;61.17;101794.34;4956955;28;20062;-82
2021/04/16 09:11:43;;;;;;;3.27;1.10;;;;;;;7.48;63.62;101802.53;4932193;28;20081;-82
2021/04/16 09:14:10;;;;;;;2.73;1.57;;;;;;;7.40;64.64;101798.94;4959642;28;20050;-82
2021/04/16 09:16:45;;;;;;;4.73;1.70;;;;;;;7.60;64.37;101800.03;4958008;28;20051;-82
2021/04/16 09:19:27;;;;;;;1.60;1.33;;;;;;;7.75;63.05;101809.84;4990191;28;20039;-82
2021/04/16 09:22:03;;;;;;;4.03;1.63;;;;;;;7.79;62.06;101807.25;4961831;28;20046;-82
2021/04/16 09:24:52;;;;;;;1.43;1.10;;;;;;;7.59;61.63;101783.38;4977470;28;20114;-80
2021/04/16 09:27:24;;;;;;;2.47;1.50;;;;;;;7.63;61.50;101792.19;4962783;28;20047;-82
2021/04/16 09:30:05;;;;;;;3.87;1.60;;;;;;;7.46;60.56;101789.38;4977073;28;20085;-82
2021/04/16 09:32:32;;;;;;;3.13;1.30;;;;;;;7.87;62.84;101791.53;4974360;28;20055;-82
2021/04/16 09:35:00;;;;;;;2.83;1.40;;;;;;;8.11;61.92;101785.59;4956921;28;20054;-82
2021/04/16 09:37:32;;;;;;;3.57;1.30;;;;;;;8.29;62.92;101784.84;4958149;28;20058;-82
2021/04/16 09:40:26;;;;;;;5.30;1.80;;;;;;;8.66;61.06;101784.25;4973405;28;20077;-82
2021/04/16 09:43:21;;;;;;;3.77;1.53;;;;;;;8.49;57.75;101784.97;4959024;28;20069;-82
2021/04/16 09:45:54;;;;;;;4.85;1.60;;;;;;;8.45;58.86;101789.38;4944609;28;20043;-83
2021/04/16 09:48:20;;;;;;;2.87;1.57;;;;;;;8.57;60.38;101788.53;4957314;28;20074;-83
2021/04/16 09:50:47;;;;;;;2.93;1.23;;;;;;;8.85;59.52;101789.59;4959991;28;20448;-81
2021/04/16 09:53:36;;;;;;;3.27;1.50;;;;;;;9.05;57.55;101792.31;4946809;28;20070;-83
2021/04/16 09:56:18;;;;;;;6.18;1.60;;;;;;;9.17;58.66;101792.38;4945335;28;20046;-81
2021/04/16 09:58:50;;;;;;;5.90;1.65;;;;;;;9.54;59.38;101795.97;4944316;28;20039;-81
2021/04/16 10:01:18;;;;;;;3.83;1.35;;;;;;;9.42;57.10;101791.56;4986507;28;20047;-80
2021/04/16 10:04:01;;;;;;;2.42;1.67;;;;;;;9.07;57.20;101788.78;4960511;28;20039;-81
2021/04/16 10:06:40;;;;;;;6.13;1.60;;;;;;;9.09;59.91;101787.06;4975200;28;20055;-82
2021/04/16 10:09:12;;;;;;;4.10;1.38;;;;;;;9.39;60.05;101783.63;4957450;28;20187;-83
2021/04/16 10:11:46;;;;;;;3.90;1.80;;;;;;;9.67;58.73;101776.66;4950488;28;20038;-81
2021/04/16 10:14:21;;;;;;;;;;;;;;;9.71;56.04;101788.06;4941389;28;20046;-82
2021/04/16 10:16:54;;;;;;;3.05;1.67;;;;;;;8.72;54.75;101781.59;4940699;28;20511;-83
2021/04/16 10:19:32;;;;;;;4.90;1.50;;;;;;;9.11;56.54;101787.06;4953601;28;20103;-84
2021/04/16 10:22:24;;;;;;;3.45;1.63;;;;;;;8.71;56.86;101790.38;4957273;28;20603;-83
2021/04/16 10:33:56;;;;;;;3.35;1.70;;;;;;;8.65;60.20;101781.56;4988760;28;20129;-82
2021/04/16 10:43:06;;;;;;;5.30;1.70;;;;;;;8.89;57.34;101779.06;4974605;28;20047;-83
2021/04/16 11:32:16;;;;;;;3.00;1.40;;;;;;;10.41;50.59;101761.66;4964228;28;20171;-83
2021/04/16 12:38:28;;;;;;;4.47;1.80;;;;;;;11.39;46.58;101729.50;4954098;28;20475;-84
2021/04/16 12:40:56;;;;;;;2.45;1.65;;;;;;;11.57;46.84;101719.66;4950142;28;20121;-84
2021/04/16 12:43:23;;;;;;;2.30;1.63;;;;;;;11.83;47.37;101729.19;4928080;28;20061;-84
2021/04/16 12:45:55;;;;;;;3.42;1.35;;;;;;;11.84;47.52;101723.88;4934169;28;20043;-84
2021/04/16 12:48:25;;;;;;;3.33;1.95;;;;;;;11.11;46.11;101727.03;4929203;28;20043;-83
2021/04/16 12:50:52;;;;;;;4.68;1.95;;;;;;;11.38;49.07;101731.28;4936288;28;20407;-83
2021/04/16 12:53:20;;;;;;;2.42;1.25;;;;;;;11.23;50.48;101728.72;4954618;28;20511;-83
2021/04/16 12:55:46;;;;;;;3.20;1.90;;;;;;;10.79;47.76;101728.97;4953253;28;20051;-84
2021/04/16 12:58:20;;;;;;;4.05;1.50;;;;;;;10.38;49.04;101737.91;4956605;28;20066;-83
2021/04/16 13:00:47;;;;;;;2.90;1.30;;;;;;;10.62;50.93;101736.94;4937952;28;20275;-84
2021/04/16 13:03:29;;;;;;;6.72;1.88;;;;;;;10.55;49.14;101730.81;4963825;28;20039;-84
2021/04/16 13:05:56;;;;;;;4.10;1.42;;;;;;;10.54;49.82;101720.25;4935759;28;20050;-85
2021/04/16 13:08:22;;;;;;;3.17;1.67;;;;;;;10.22;49.90;101723.84;4965076;28;20514;-83
2021/04/16 13:10:49;;;;;;;4.28;1.60;;;;;;;10.18;51.36;101718.56;4934163;28;20047;-83
2021/04/16 13:13:15;;;;;;;3.20;1.10;;;;;;;10.24;49.89;101730.00;4934411;28;20093;-84
2021/04/16 13:15:41;;;;;;;4.15;1.40;;;;;;;10.02;48.45;101722.97;4945248;28;20074;-84
2021/04/16 13:18:16;;;;;;;4.72;1.88;;;;;;;10.12;47.99;101717.66;4926173;28;20035;-83
2021/04/16 13:20:47;;;;;;;3.85;1.52;;;;;;;10.26;49.33;101722.09;4963796;23;20050;-82
2021/04/16 13:23:17;;;;;;;;;;;;;;;10.75;48.82;101708.69;4968137;28;20081;-81
2021/04/16 13:25:44;;;;;;;3.70;1.77;;;;;;;11.16;48.90;101719.94;4971844;28;19959;-81
2021/04/16 13:28:10;;;;;;;3.30;1.35;;;;;;;11.26;48.13;101716.34;5009864;28;20072;-81
2021/04/16 13:30:44;;;;;;;3.25;1.95;;;;;;;11.33;45.30;101711.03;4990557;28;20058;-83
2021/04/16 13:33:16;;;;;;;3.85;1.45;;;;;;;11.30;42.79;101706.63;4985646;28;20133;-82
2021/04/16 13:35:55;;;;;;;2.90;1.35;;;;;;;10.48;41.88;101709.69;4982079;28;20045;-82
2021/04/16 13:38:29;;;;;;;2.28;1.40;;;;;;;10.63;44.09;101697.31;4988754;28;20056;-82
2021/04/16 13:41:06;;;;;;;4.25;1.60;;;;;;;10.83;44.83;101706.91;4992943;28;20041;-82
2021/04/16 13:43:53;;;;;;;3.78;1.40;;;;;;;10.68;44.89;101705.22;5024495;28;20519;-81
2021/04/16 13:46:25;;;;;;;2.90;1.27;;;;;;;10.36;45.35;101698.28;4987667;28;20065;-81
2021/04/16 13:49:00;;;;;;;3.13;1.42;;;;;;;10.54;46.71;101714.97;5003450;28;20487;-81
2021/04/16 13:51:39;;;;;;;3.20;1.55;;;;;;;10.30;46.47;101711.50;4991212;28;20062;-80
2021/04/16 13:54:21;;;;;;;4.35;2.20;;;;;;;9.94;48.10;101716.81;4999731;28;20061;-81
2021/04/16 13:56:55;;;;;;;7.40;1.63;;;;;;;9.81;47.11;101700.97;4993556;28;20052;-80
2021/04/16 13:59:38;;;;;;;2.92;1.83;;;;;;;9.99;47.34;101709.75;4962236;28;20038;-81
2021/04/16 14:02:15;;;;;;;3.80;1.55;;;;;;;10.08;45.36;101693.91;4999246;28;20042;-80
2021/04/16 14:05:02;;;;;;;;;;;;;;;10.13;47.91;101710.63;5010686;28;20046;-81
2021/04/16 14:07:39;;;;;;;4.47;1.60;;;;;;;10.39;47.26;101690.34;4983224;28;19928;-81
2021/04/16 14:10:05;;;;;;;4.25;1.25;;;;;;;9.95;47.74;101705.38;5006116;28;21007;-81